createdAt,value
2019-04-20T00:00:09.077Z,8.63
2019-04-20T00:02:35.883Z,8.65
2019-04-20T00:05:07.426Z,7.95
2019-04-20T00:07:37.599Z,8.18
2019-04-20T00:10:10.936Z,8.73
2019-04-20T00:12:55.685Z,8.25
2019-04-20T00:15:07.102Z,8.45
2019-04-20T00:17:41.192Z,8.15
2019-04-20T00:20:13.427Z,8.08
2019-04-20T00:22:45.149Z,8.70
2019-04-20T00:25:44.429Z,8.75
2019-04-20T00:28:24.072Z,8.60
2019-04-20T00:30:54.465Z,8.05
2019-04-20T00:33:21.670Z,8.85
2019-04-20T00:35:37.938Z,9.73
2019-04-20T00:38:07.728Z,9.10
2019-04-20T00:40:37.293Z,8.63
2019-04-20T00:43:06.680Z,8.70
2019-04-20T00:45:43.649Z,8.60
2019-04-20T00:48:18.403Z,8.33
2019-04-20T00:50:54.253Z,8.33
2019-04-20T00:53:14.788Z,8.60
2019-04-20T00:55:36.069Z,9.00
2019-04-20T00:58:11.738Z,8.53
2019-04-20T01:01:00.395Z,8.75
2019-04-20T01:03:20.721Z,8.78
2019-04-20T01:06:12.342Z,8.63
2019-04-20T01:08:27.531Z,8.40
2019-04-20T01:10:59.082Z,8.73
2019-04-20T01:13:27.160Z,8.73
2019-04-20T01:16:03.342Z,8.50
2019-04-20T01:18:26.412Z,8.45
2019-04-20T01:21:00.309Z,9.05
2019-04-20T01:23:34.640Z,8.53
2019-04-20T01:26:01.661Z,9.15
2019-04-20T01:28:44.099Z,8.73
2019-04-20T01:31:07.902Z,9.73
2019-04-20T01:33:37.234Z,8.88
2019-04-20T01:36:14.718Z,9.35
2019-04-20T01:38:39.896Z,9.40
2019-04-20T01:40:57.143Z,8.50
2019-04-20T01:43:26.948Z,8.70
2019-04-20T01:46:01.347Z,8.58
2019-04-20T01:48:30.547Z,8.58
2019-04-20T01:51:06.003Z,8.45
2019-04-20T01:53:44.380Z,8.88
2019-04-20T01:58:50.047Z,8.40
2019-04-20T02:01:19.444Z,8.10
2019-04-20T02:03:48.464Z,8.95
2019-04-20T02:06:22.265Z,8.98
2019-04-20T02:08:51.361Z,8.63
2019-04-20T02:11:26.074Z,8.48
2019-04-20T02:13:55.015Z,7.95
2019-04-20T02:16:32.725Z,8.03
2019-04-20T02:19:10.916Z,8.50
2019-04-20T02:21:38.217Z,8.80
2019-04-20T02:23:59.358Z,8.05
2019-04-20T02:26:24.323Z,8.70
2019-04-20T02:29:17.509Z,9.13
2019-04-20T02:32:06.657Z,8.58
2019-04-20T02:34:37.729Z,7.90
2019-04-20T02:47:08.433Z,8.48
2019-04-20T02:49:36.248Z,8.98
2019-04-20T02:52:02.580Z,8.48
2019-04-20T02:57:05.653Z,8.95
2019-04-20T02:59:54.256Z,9.45
2019-04-20T03:01:53.213Z,8.63
2019-04-20T03:04:06.981Z,9.08
2019-04-20T03:06:53.511Z,8.65
2019-04-20T03:09:29.726Z,10.10
2019-04-20T03:12:04.875Z,8.88
2019-04-20T03:14:23.925Z,10.55
2019-04-20T03:16:50.751Z,12.78
2019-04-20T03:19:19.784Z,16.70
2019-04-20T03:21:58.598Z,18.98
2019-04-20T03:24:31.074Z,19.35
2019-04-20T03:26:57.049Z,20.08
2019-04-20T03:29:35.981Z,19.30
2019-04-20T03:32:42.436Z,19.02
2019-04-20T03:37:24.527Z,14.98
2019-04-20T03:39:42.971Z,12.10
2019-04-20T03:41:58.644Z,10.20
2019-04-20T03:44:30.499Z,9.20
2019-04-20T03:47:01.235Z,8.23
2019-04-20T03:49:52.480Z,9.05
2019-04-20T03:52:32.999Z,8.73
2019-04-20T03:55:02.541Z,8.35
2019-04-20T03:57:49.524Z,8.78
2019-04-20T04:00:26.512Z,8.68
2019-04-20T04:05:31.105Z,9.18
2019-04-20T04:07:55.944Z,9.38
2019-04-20T04:10:28.289Z,8.78
2019-04-20T04:13:12.758Z,9.00
2019-04-20T04:15:48.798Z,8.70
2019-04-20T04:18:19.722Z,9.38
2019-04-20T04:20:49.986Z,9.43
2019-04-20T04:23:32.102Z,8.85
2019-04-20T04:26:00.785Z,8.95
2019-04-20T04:28:28.693Z,9.23
2019-04-20T04:31:06.579Z,8.25
2019-04-20T04:33:53.166Z,8.78
2019-04-20T04:36:00.453Z,11.18
2019-04-20T04:38:37.557Z,9.35
2019-04-20T04:43:31.603Z,9.88
2019-04-20T04:45:46.959Z,8.03
2019-04-20T04:48:22.359Z,14.13
2019-04-20T04:50:52.746Z,9.45
2019-04-20T04:53:27.153Z,9.20
2019-04-20T04:55:54.914Z,10.10
2019-04-20T04:58:17.292Z,8.33
2019-04-20T05:00:46.775Z,9.45
2019-04-20T05:03:35.745Z,8.53
2019-04-20T05:06:06.552Z,9.25
2019-04-20T05:08:27.293Z,8.58
2019-04-20T05:10:52.054Z,9.58
2019-04-20T05:13:21.827Z,10.05
2019-04-20T05:16:03.491Z,8.28
2019-04-20T05:18:45.038Z,8.50
2019-04-20T05:21:15.333Z,8.40
2019-04-20T05:23:53.287Z,9.20
2019-04-20T05:26:31.071Z,8.80
2019-04-20T05:28:55.565Z,8.88
2019-04-20T05:34:08.545Z,7.72
2019-04-20T05:36:37.266Z,8.80
2019-04-20T05:39:17.492Z,8.75
2019-04-20T05:41:31.060Z,14.55
2019-04-20T05:44:05.301Z,14.45
2019-04-20T05:46:36.245Z,8.50
2019-04-20T05:49:13.479Z,8.75
2019-04-20T05:51:44.397Z,8.45
2019-04-20T05:54:17.812Z,8.98
2019-04-20T05:56:45.857Z,9.25
2019-04-20T05:59:11.559Z,8.25
2019-04-20T06:01:45.452Z,9.38
2019-04-20T06:04:07.583Z,9.93
2019-04-20T06:06:45.009Z,10.25
2019-04-20T06:09:21.061Z,9.43
2019-04-20T06:12:00.856Z,8.00
2019-04-20T06:14:05.794Z,7.67
2019-04-20T06:19:28.661Z,7.83
2019-04-20T06:21:57.501Z,8.90
2019-04-20T06:24:33.461Z,14.58
2019-04-20T06:27:16.182Z,8.90
2019-04-20T06:29:30.990Z,8.93
2019-04-20T06:32:06.899Z,8.50
2019-04-20T06:37:02.868Z,11.50
2019-04-20T06:49:34.510Z,10.40
2019-04-20T06:52:12.996Z,9.20
2019-04-20T06:54:48.562Z,9.83
2019-04-20T06:57:25.485Z,8.88
2019-04-20T06:59:57.926Z,9.45
2019-04-20T07:02:32.468Z,9.60
2019-04-20T07:04:55.965Z,9.73
2019-04-20T07:07:26.243Z,10.00
2019-04-20T07:10:06.477Z,10.48
2019-04-20T07:12:22.797Z,9.40
2019-04-20T07:14:42.725Z,8.50
2019-04-20T07:17:48.449Z,8.73
2019-04-20T07:20:01.443Z,8.10
2019-04-20T07:22:36.185Z,8.60
2019-04-20T07:25:27.997Z,8.25
2019-04-20T07:27:53.571Z,8.30
2019-04-20T07:30:21.852Z,8.28
2019-04-20T07:33:00.728Z,7.85
2019-04-20T07:35:24.837Z,8.90
2019-04-20T07:40:24.423Z,8.20
2019-04-20T07:42:55.242Z,8.65
2019-04-20T07:45:32.085Z,9.05
2019-04-20T07:48:03.511Z,8.93
2019-04-20T07:50:21.708Z,8.90
2019-04-20T07:52:46.563Z,10.93
2019-04-20T07:57:55.094Z,9.85
2019-04-20T08:03:22.037Z,9.45
2019-04-20T08:05:54.108Z,9.75
2019-04-20T08:08:28.281Z,9.45
2019-04-20T08:11:00.732Z,9.28
2019-04-20T08:13:40.377Z,9.85
2019-04-20T08:21:06.728Z,10.25
2019-04-20T08:23:34.814Z,9.63
2019-04-20T08:25:52.202Z,9.98
2019-04-20T08:28:33.979Z,9.83
2019-04-20T08:31:09.313Z,10.10
2019-04-20T08:34:01.733Z,9.83
2019-04-20T08:36:27.245Z,10.88
2019-04-20T08:41:20.699Z,10.90
2019-04-20T08:44:32.394Z,10.68
2019-04-20T08:46:38.681Z,10.25
2019-04-20T08:49:06.293Z,10.68
2019-04-20T08:51:34.596Z,10.32
2019-04-20T08:53:56.814Z,10.53
2019-04-20T08:56:22.318Z,10.72
2019-04-20T08:58:39.164Z,10.32
2019-04-20T09:01:10.287Z,10.23
2019-04-20T09:03:51.245Z,10.05
2019-04-20T09:06:25.176Z,10.38
2019-04-20T09:08:51.848Z,10.03
2019-04-20T09:11:26.235Z,11.00
2019-04-20T09:13:43.450Z,10.10
2019-04-20T09:16:08.838Z,11.18
2019-04-20T09:18:47.771Z,9.60
2019-04-20T09:21:22.175Z,10.00
2019-04-20T09:23:57.704Z,10.28
2019-04-20T09:26:32.315Z,10.30
2019-04-20T09:28:58.994Z,10.43
2019-04-20T09:31:36.490Z,10.98
2019-04-20T09:34:13.331Z,11.28
2019-04-20T09:36:44.609Z,10.45
2019-04-20T09:39:11.344Z,11.12
2019-04-20T09:41:58.540Z,11.05
2019-04-20T09:44:06.837Z,14.60
2019-04-20T09:46:41.285Z,12.43
2019-04-20T09:49:18.303Z,27.62
2019-04-20T09:51:51.201Z,13.05
2019-04-20T09:54:26.727Z,14.28
2019-04-20T09:57:00.611Z,18.23
2019-04-20T09:59:27.306Z,12.18
2019-04-20T10:01:44.620Z,15.75
2019-04-20T10:04:07.609Z,16.70
2019-04-20T10:06:37.604Z,23.67
2019-04-20T10:09:09.440Z,32.78
2019-04-20T10:11:41.682Z,16.73
2019-04-20T10:14:08.494Z,25.70
2019-04-20T10:16:37.896Z,15.45
2019-04-20T10:19:08.741Z,12.73
2019-04-20T10:21:37.984Z,13.18
2019-04-20T10:24:06.874Z,11.40
2019-04-20T10:26:42.778Z,13.98
2019-04-20T10:29:11.315Z,11.88
2019-04-20T10:31:46.867Z,11.85
2019-04-20T10:34:11.303Z,12.73
2019-04-20T10:36:41.949Z,12.70
2019-04-20T10:39:10.891Z,11.48
2019-04-20T10:41:50.591Z,13.28
2019-04-20T10:44:14.688Z,12.43
2019-04-20T10:46:43.265Z,12.07
2019-04-20T10:49:13.299Z,12.40
2019-04-20T10:51:41.937Z,12.68
2019-04-20T10:54:10.404Z,12.50
2019-04-20T10:56:39.390Z,12.20
2019-04-20T10:59:08.044Z,12.20
2019-04-20T11:01:37.854Z,12.23
2019-04-20T11:04:06.536Z,12.07
2019-04-20T11:06:36.411Z,12.68
2019-04-20T11:09:07.032Z,12.47
2019-04-20T11:11:37.007Z,12.15
2019-04-20T11:14:12.542Z,12.20
2019-04-20T11:16:36.122Z,11.90
2019-04-20T11:19:05.486Z,11.97
2019-04-20T11:21:34.430Z,11.55
2019-04-20T11:24:04.472Z,10.63
2019-04-20T11:26:36.495Z,10.50
2019-04-20T11:29:04.201Z,10.08
2019-04-20T11:31:40.578Z,10.30
2019-04-20T11:34:03.924Z,9.30
2019-04-20T11:36:32.966Z,10.58
2019-04-20T11:39:02.948Z,10.05
2019-04-20T11:41:34.027Z,10.48
2019-04-20T11:44:02.048Z,10.95
2019-04-20T11:46:30.622Z,10.60
2019-04-20T11:48:59.426Z,11.30
2019-04-20T11:51:29.673Z,10.32
2019-04-20T11:53:58.573Z,10.13
2019-04-20T11:56:32.997Z,11.38
2019-04-20T11:58:58.762Z,10.28
2019-04-20T12:01:39.236Z,9.55
2019-04-20T12:04:09.358Z,10.03
2019-04-20T12:06:30.729Z,8.90
2019-04-20T12:09:00.917Z,8.85
2019-04-20T12:11:37.114Z,9.08
2019-04-20T12:14:00.668Z,9.63
2019-04-20T12:16:37.446Z,8.50
2019-04-20T12:19:06.423Z,8.65
2019-04-20T12:21:35.096Z,8.48
2019-04-20T12:24:04.458Z,8.55
2019-04-20T12:26:33.321Z,8.50
2019-04-20T12:29:01.974Z,8.53
2019-04-20T12:31:31.498Z,9.03
2019-04-20T12:34:00.250Z,9.20
2019-04-20T12:36:30.151Z,9.58
2019-04-20T12:38:59.203Z,8.70
2019-04-20T12:41:37.442Z,9.15
2019-04-20T12:43:59.435Z,9.48
2019-04-20T12:46:28.210Z,8.73
2019-04-20T12:48:57.701Z,9.88
2019-04-20T12:51:33.804Z,9.18
2019-04-20T12:53:56.639Z,9.53
2019-04-20T12:56:26.445Z,9.13
2019-04-20T12:58:55.793Z,8.88
2019-04-20T13:01:25.853Z,9.35
2019-04-20T13:03:55.323Z,8.98
2019-04-20T13:06:24.094Z,9.08
2019-04-20T13:08:56.873Z,9.50
2019-04-20T13:11:24.794Z,9.43
2019-04-20T13:14:28.449Z,9.15
2019-04-20T13:16:56.961Z,8.88
2019-04-20T13:19:26.694Z,8.40
2019-04-20T13:21:56.802Z,8.73
2019-04-20T13:24:27.092Z,8.43
2019-04-20T13:26:55.672Z,8.58
2019-04-20T13:29:24.818Z,7.90
2019-04-20T13:31:55.466Z,8.48
2019-04-20T13:34:24.376Z,9.05
2019-04-20T13:36:53.046Z,8.95
2019-04-20T13:39:22.712Z,8.40
2019-04-20T13:42:03.399Z,9.25
2019-04-20T13:44:22.069Z,9.40
2019-04-20T13:46:52.054Z,9.40
2019-04-20T13:49:20.862Z,8.90
2019-04-20T13:51:50.518Z,12.20
2019-04-20T13:54:23.997Z,8.53
2019-04-20T13:56:52.156Z,9.98
2019-04-20T13:59:23.566Z,10.20
2019-04-20T14:02:00.269Z,8.50
2019-04-20T14:04:30.718Z,8.93
2019-04-20T14:06:59.545Z,8.88
2019-04-20T14:09:29.587Z,8.58
2019-04-20T14:12:11.848Z,7.87
2019-04-20T14:14:28.934Z,7.87
2019-04-20T14:16:57.547Z,7.85
2019-04-20T14:19:27.560Z,7.67
2019-04-20T14:21:56.461Z,7.33
2019-04-20T14:24:25.117Z,7.08
2019-04-20T14:26:54.789Z,7.72
2019-04-20T14:29:23.543Z,7.67
2019-04-20T14:31:52.200Z,7.40
2019-04-20T14:34:20.754Z,7.00
2019-04-20T14:36:49.195Z,7.80
2019-04-20T14:39:18.329Z,7.75
2019-04-20T14:41:46.839Z,7.67
2019-04-20T14:44:16.167Z,7.20
2019-04-20T14:46:45.542Z,7.62
2019-04-20T14:49:14.740Z,6.58
2019-04-20T14:51:43.675Z,6.85
2019-04-20T14:54:13.771Z,7.25
2019-04-20T14:56:43.484Z,7.10
2019-04-20T14:59:13.650Z,6.95
2019-04-20T15:01:46.678Z,6.25
2019-04-20T15:04:18.574Z,6.92
2019-04-20T15:06:46.477Z,6.37
2019-04-20T15:09:15.180Z,6.75
2019-04-20T15:11:45.145Z,5.97
2019-04-20T15:14:14.551Z,6.45
2019-04-20T15:16:44.495Z,5.85
2019-04-20T15:19:15.699Z,5.83
2019-04-20T15:21:47.302Z,5.72
2019-04-20T15:24:16.049Z,7.78
2019-04-20T15:26:44.767Z,7.80
2019-04-20T15:29:14.624Z,15.88
2019-04-20T15:31:44.035Z,8.80
2019-04-20T15:34:12.953Z,30.12
2019-04-20T15:36:42.292Z,16.48
2019-04-20T15:39:11.383Z,31.97
2019-04-20T15:41:41.034Z,12.65
2019-04-20T15:44:11.137Z,11.08
2019-04-20T15:46:41.548Z,10.85
2019-04-20T15:49:10.276Z,11.90
2019-04-20T15:51:39.776Z,9.00
2019-04-20T15:54:09.514Z,16.32
2019-04-20T15:56:42.489Z,44.13
2019-04-20T15:59:08.519Z,82.57
2019-04-20T16:01:38.770Z,77.22
2019-04-20T16:04:12.754Z,61.08
2019-04-20T16:06:39.328Z,15.20
2019-04-20T16:09:10.009Z,14.95
2019-04-20T16:11:39.257Z,7.55
2019-04-20T16:14:09.048Z,8.88
2019-04-20T16:16:38.007Z,9.75
2019-04-20T16:19:12.768Z,8.68
2019-04-20T16:21:37.484Z,15.35
2019-04-20T16:24:08.918Z,8.98
2019-04-20T16:26:39.928Z,14.15
2019-04-20T16:29:08.564Z,16.50
2019-04-20T16:31:38.308Z,9.73
2019-04-20T16:34:07.673Z,13.25
2019-04-20T16:36:36.696Z,8.03
2019-04-20T16:39:09.219Z,7.90
2019-04-20T16:41:38.242Z,10.85
2019-04-20T16:44:07.183Z,6.33
2019-04-20T16:46:36.307Z,7.58
2019-04-20T16:49:05.197Z,7.40
2019-04-20T16:51:34.785Z,9.78
2019-04-20T16:54:03.892Z,7.22
2019-04-20T16:56:32.964Z,10.00
2019-04-20T16:59:09.296Z,8.68
2019-04-20T17:01:32.253Z,7.28
2019-04-20T17:04:07.167Z,32.75
2019-04-20T17:06:32.157Z,62.70
2019-04-20T17:09:01.160Z,16.32
2019-04-20T17:11:30.046Z,26.20
2019-04-20T17:14:01.653Z,11.10
2019-04-20T17:16:29.758Z,23.90
2019-04-20T17:18:59.512Z,26.82
2019-04-20T17:21:30.593Z,11.45
2019-04-20T17:23:59.503Z,9.80
2019-04-20T17:26:29.899Z,7.10
2019-04-20T17:29:03.841Z,9.48
2019-04-20T17:31:35.380Z,6.63
2019-04-20T17:34:21.293Z,7.00
2019-04-20T17:36:37.112Z,7.53
2019-04-20T17:39:10.289Z,6.87
2019-04-20T17:41:56.241Z,7.83
2019-04-20T17:44:25.013Z,8.40
2019-04-20T17:46:50.458Z,10.28
2019-04-20T17:49:21.038Z,13.45
2019-04-20T17:51:59.110Z,6.12
2019-04-20T17:54:16.014Z,6.03
2019-04-20T17:56:44.910Z,5.67
2019-04-20T17:59:14.435Z,6.47
2019-04-20T18:02:02.739Z,8.38
2019-04-20T18:05:04.854Z,9.85
2019-04-20T18:07:26.963Z,9.83
2019-04-20T18:09:49.235Z,6.28
2019-04-20T18:12:07.617Z,5.55
2019-04-20T18:14:49.013Z,6.33
2019-04-20T18:17:21.478Z,8.00
2019-04-20T18:19:45.055Z,5.60
2019-04-20T18:22:14.058Z,5.92
2019-04-20T18:25:08.950Z,6.50
2019-04-20T18:27:33.107Z,6.83
2019-04-20T18:30:05.380Z,6.20
2019-04-20T18:32:20.745Z,5.97
2019-04-20T18:34:55.515Z,7.60
2019-04-20T18:37:23.398Z,5.53
2019-04-20T18:39:57.441Z,5.37
2019-04-20T18:42:29.135Z,5.15
2019-04-20T18:45:10.718Z,5.50
2019-04-20T18:47:44.150Z,5.90
2019-04-20T18:50:04.498Z,5.83
2019-04-20T18:52:24.192Z,6.00
2019-04-20T18:54:55.427Z,6.03
2019-04-20T18:57:26.041Z,5.60
2019-04-20T18:59:56.674Z,5.55
2019-04-20T19:02:29.313Z,5.12
2019-04-20T19:04:58.067Z,5.37
2019-04-20T19:07:25.872Z,7.40
2019-04-20T19:10:05.719Z,6.78
2019-04-20T19:12:31.213Z,6.55
2019-04-20T19:15:26.868Z,6.05
2019-04-20T19:17:57.084Z,9.05
2019-04-20T19:20:28.483Z,6.00
2019-04-20T19:22:56.158Z,6.55
2019-04-20T19:25:28.129Z,6.42
2019-04-20T19:27:57.503Z,7.10
2019-04-20T19:30:35.322Z,10.30
2019-04-20T19:33:14.524Z,67.50
2019-04-20T19:35:40.679Z,70.22
2019-04-20T19:38:07.801Z,60.17
2019-04-20T19:40:40.336Z,9.10
2019-04-20T19:43:08.582Z,7.60
2019-04-20T19:45:56.665Z,8.38
2019-04-20T19:48:12.236Z,7.05
2019-04-20T19:50:54.799Z,7.90
2019-04-20T19:53:26.140Z,7.28
2019-04-20T19:55:43.915Z,7.10
2019-04-20T19:58:14.108Z,7.60
2019-04-20T20:00:53.461Z,6.37
2019-04-20T20:03:19.862Z,7.25
2019-04-20T20:05:51.818Z,8.45
2019-04-20T20:08:23.491Z,8.20
2019-04-20T20:10:50.485Z,7.15
2019-04-20T20:13:20.412Z,8.65
2019-04-20T20:15:57.556Z,10.30
2019-04-20T20:18:35.511Z,8.68
2019-04-20T20:21:04.993Z,7.10
2019-04-20T20:23:21.187Z,7.50
2019-04-20T20:25:51.434Z,105.07
2019-04-20T20:28:32.303Z,37.88
2019-04-20T20:31:01.801Z,49.42
2019-04-20T20:33:39.239Z,44.27
2019-04-20T20:36:01.998Z,7.83
2019-04-20T20:38:30.490Z,10.90
2019-04-20T20:40:57.814Z,9.25
2019-04-20T20:43:37.391Z,10.82
2019-04-20T20:46:07.254Z,9.03
2019-04-20T20:48:35.470Z,9.40
2019-04-20T20:51:10.396Z,8.00
2019-04-20T20:53:37.582Z,7.90
2019-04-20T20:56:01.927Z,6.78
2019-04-20T20:58:37.457Z,8.88
2019-04-20T21:01:01.111Z,8.83
2019-04-20T21:03:31.255Z,7.37
2019-04-20T21:05:53.701Z,6.92
2019-04-20T21:08:23.812Z,7.80
2019-04-20T21:10:52.727Z,6.55
2019-04-20T21:13:21.498Z,7.12
2019-04-20T21:15:54.168Z,7.58
2019-04-20T21:18:43.662Z,7.35
2019-04-20T21:21:06.464Z,8.00
2019-04-20T21:23:35.317Z,7.58
2019-04-20T21:26:12.744Z,7.17
2019-04-20T21:28:40.518Z,8.85
2019-04-20T21:31:14.687Z,8.85
2019-04-20T21:33:42.660Z,9.23
2019-04-20T21:36:13.514Z,8.20
2019-04-20T21:38:44.381Z,7.78
2019-04-20T21:41:16.210Z,8.28
2019-04-20T21:43:44.661Z,7.92
2019-04-20T21:46:13.994Z,7.83
2019-04-20T21:48:57.129Z,7.95
2019-04-20T21:51:26.435Z,7.87
2019-04-20T21:53:44.304Z,7.75
2019-04-20T21:56:13.211Z,7.78
2019-04-20T21:58:49.690Z,7.67
2019-04-20T22:01:22.653Z,7.70
2019-04-20T22:03:42.940Z,7.55
2019-04-20T22:06:11.858Z,7.85
2019-04-20T22:08:49.382Z,7.78
2019-04-20T22:11:11.636Z,8.38
2019-04-20T22:13:43.644Z,8.10
2019-04-20T22:16:12.682Z,8.05
2019-04-20T22:18:58.214Z,8.40
2019-04-20T22:21:21.011Z,7.80
2019-04-20T22:23:59.869Z,8.58
2019-04-20T22:26:26.726Z,8.23
2019-04-20T22:28:42.637Z,8.45
2019-04-20T22:31:11.917Z,6.55
2019-04-20T22:33:44.578Z,6.50
2019-04-20T22:36:13.116Z,5.67
2019-04-20T22:39:02.881Z,4.80
2019-04-20T22:41:32.209Z,5.00
2019-04-20T22:44:02.833Z,5.20
2019-04-20T22:46:34.145Z,5.28
2019-04-20T22:49:22.002Z,5.40
2019-04-20T22:51:44.696Z,4.87
2019-04-20T22:54:16.934Z,4.90
2019-04-20T22:56:48.467Z,5.08
2019-04-20T22:59:12.516Z,4.83
2019-04-20T23:01:40.458Z,4.75
2019-04-20T23:04:04.386Z,5.08
2019-04-20T23:06:37.879Z,5.37
2019-04-20T23:09:07.389Z,9.18
2019-04-20T23:11:35.419Z,6.60
2019-04-20T23:14:04.650Z,5.60
2019-04-20T23:16:37.934Z,5.53
2019-04-20T23:19:04.428Z,5.37
2019-04-20T23:21:34.104Z,4.72
2019-04-20T23:24:06.293Z,5.05
2019-04-20T23:26:36.694Z,5.15
2019-04-20T23:29:03.268Z,5.03
2019-04-20T23:31:32.288Z,4.72
2019-04-20T23:34:09.304Z,4.75
2019-04-20T23:36:37.174Z,4.90
2019-04-20T23:39:03.134Z,5.08
2019-04-20T23:41:31.634Z,4.80
2019-04-20T23:44:08.252Z,5.22
2019-04-20T23:46:37.016Z,4.90
2019-04-20T23:49:25.575Z,5.00
2019-04-20T23:52:09.632Z,4.97
2019-04-20T23:54:25.619Z,5.15
2019-04-20T23:56:50.113Z,5.15
2019-04-20T23:59:24.629Z,4.62
